createdAt,value
2019-04-14T00:00:45.385Z,70.80
2019-04-14T00:03:17.445Z,71.10
2019-04-14T00:05:47.196Z,70.90
2019-04-14T00:08:15.477Z,70.00
2019-04-14T00:10:42.512Z,70.30
2019-04-14T00:13:09.417Z,70.40
2019-04-14T00:15:41.968Z,69.30
2019-04-14T00:18:05.469Z,69.70
2019-04-14T00:20:33.617Z,69.30
2019-04-14T00:23:00.726Z,70.10
2019-04-14T00:25:28.323Z,69.70
2019-04-14T00:27:56.432Z,70.00
2019-04-14T00:30:23.557Z,70.20
2019-04-14T00:32:53.103Z,69.30
2019-04-14T00:35:38.573Z,70.40
2019-04-14T00:38:26.057Z,70.80
2019-04-14T00:41:07.270Z,70.90
2019-04-14T00:43:51.061Z,70.40
2019-04-14T00:46:21.071Z,70.50
2019-04-14T00:48:49.731Z,71.50
2019-04-14T00:51:17.741Z,72.10
2019-04-14T00:53:44.834Z,70.80
2019-04-14T00:56:12.846Z,71.40
2019-04-14T00:58:41.063Z,69.70
2019-04-14T01:01:09.065Z,69.60
2019-04-14T01:03:37.254Z,68.80
2019-04-14T01:06:05.418Z,68.90
2019-04-14T01:08:33.427Z,68.90
2019-04-14T01:11:01.008Z,69.70
2019-04-14T01:13:28.902Z,70.40
2019-04-14T01:16:03.772Z,71.40
2019-04-14T01:18:25.528Z,72.00
2019-04-14T01:20:53.787Z,73.30
2019-04-14T01:23:21.544Z,73.30
2019-04-14T01:25:49.870Z,73.20
2019-04-14T01:28:17.960Z,73.30
2019-04-14T01:30:45.840Z,74.40
2019-04-14T01:33:14.033Z,75.10
2019-04-14T01:35:42.129Z,75.70
2019-04-14T01:38:10.290Z,76.50
2019-04-14T01:40:38.173Z,77.10
2019-04-14T01:43:05.989Z,78.00
2019-04-14T01:45:33.887Z,79.00
2019-04-14T01:48:01.713Z,79.10
2019-04-14T01:50:49.600Z,78.80
2019-04-14T01:53:18.568Z,78.50
2019-04-14T01:56:05.629Z,78.50
2019-04-14T01:58:34.615Z,78.60
2019-04-14T02:01:04.128Z,78.60
2019-04-14T02:03:32.293Z,78.30
2019-04-14T02:06:00.361Z,79.40
2019-04-14T02:08:28.397Z,79.50
2019-04-14T02:10:56.560Z,80.10
2019-04-14T02:13:24.731Z,80.60
2019-04-14T02:15:52.860Z,80.90
2019-04-14T02:18:23.069Z,80.90
2019-04-14T02:20:51.215Z,81.40
2019-04-14T02:23:19.244Z,81.20
2019-04-14T02:25:47.203Z,79.90
2019-04-14T02:28:16.127Z,80.50
2019-04-14T02:30:55.941Z,79.80
2019-04-14T02:33:38.954Z,81.30
2019-04-14T02:36:14.057Z,81.30
2019-04-14T02:38:43.519Z,82.30
2019-04-14T02:48:44.565Z,82.30
2019-04-14T02:51:06.150Z,81.10
2019-04-14T02:53:39.301Z,80.40
2019-04-14T02:56:10.016Z,80.30
2019-04-14T03:01:21.192Z,79.90
2019-04-14T03:03:35.938Z,80.20
2019-04-14T03:06:05.393Z,81.40
2019-04-14T03:08:36.049Z,81.30
2019-04-14T03:11:04.008Z,81.60
2019-04-14T03:13:29.395Z,81.00
2019-04-14T03:16:07.914Z,81.00
2019-04-14T03:21:15.793Z,82.40
2019-04-14T03:23:57.961Z,82.40
2019-04-14T03:26:27.755Z,82.30
2019-04-14T03:28:51.604Z,82.60
2019-04-14T03:34:30.255Z,84.10
2019-04-14T03:36:59.635Z,84.60
2019-04-14T03:38:58.761Z,84.40
2019-04-14T03:41:24.011Z,84.60
2019-04-14T03:44:07.355Z,84.40
2019-04-14T03:51:26.268Z,85.10
2019-04-14T03:53:48.497Z,83.70
2019-04-14T03:56:27.091Z,84.20
2019-04-14T03:58:55.347Z,84.50
2019-04-14T04:01:23.661Z,83.20
2019-04-14T04:03:50.764Z,82.50
2019-04-14T04:06:18.124Z,83.00
2019-04-14T04:08:46.376Z,82.40
2019-04-14T04:11:15.008Z,82.60
2019-04-14T04:13:43.274Z,84.20
2019-04-14T04:16:12.248Z,84.60
2019-04-14T04:18:50.880Z,85.10
2019-04-14T04:21:09.937Z,85.60
2019-04-14T04:23:57.549Z,85.70
2019-04-14T04:26:36.572Z,86.00
2019-04-14T04:29:09.115Z,86.90
2019-04-14T04:31:38.128Z,87.50
2019-04-14T04:34:16.246Z,87.80
2019-04-14T04:37:01.919Z,88.20
2019-04-14T04:39:38.137Z,89.20
2019-04-14T04:42:06.905Z,89.10
2019-04-14T04:44:35.529Z,89.40
2019-04-14T04:47:03.489Z,88.50
2019-04-14T04:49:31.419Z,88.40
2019-04-14T04:51:59.698Z,88.30
2019-04-14T04:54:27.913Z,88.10
2019-04-14T04:56:55.880Z,88.80
2019-04-14T04:59:23.467Z,88.20
2019-04-14T05:01:51.535Z,87.80
2019-04-14T05:04:19.503Z,88.10
2019-04-14T05:06:57.386Z,88.60
2019-04-14T05:09:29.997Z,88.10
2019-04-14T05:12:17.470Z,89.00
2019-04-14T05:14:46.406Z,90.10
2019-04-14T05:17:15.417Z,89.50
2019-04-14T05:19:43.580Z,88.60
2019-04-14T05:22:11.302Z,88.30
2019-04-14T05:24:39.652Z,87.90
2019-04-14T05:27:07.799Z,86.80
2019-04-14T05:29:35.071Z,87.00
2019-04-14T05:32:02.388Z,86.80
2019-04-14T05:34:30.478Z,86.20
2019-04-14T05:36:58.480Z,85.80
2019-04-14T05:39:26.462Z,86.00
2019-04-14T05:42:03.903Z,86.00
2019-04-14T05:44:23.194Z,85.70
2019-04-14T05:46:51.303Z,85.50
2019-04-14T05:49:28.535Z,84.70
2019-04-14T05:51:48.110Z,84.40
2019-04-14T05:54:16.321Z,84.30
2019-04-14T05:56:44.674Z,83.20
2019-04-14T05:59:11.839Z,83.40
2019-04-14T06:01:41.934Z,83.70
2019-04-14T06:04:09.341Z,83.60
2019-04-14T06:06:36.586Z,83.80
2019-04-14T06:09:05.867Z,83.30
2019-04-14T06:11:33.467Z,83.60
2019-04-14T06:14:00.586Z,83.10
2019-04-14T06:16:27.633Z,82.40
2019-04-14T06:18:54.583Z,82.30
2019-04-14T06:21:23.272Z,81.80
2019-04-14T06:23:50.426Z,81.30
2019-04-14T06:26:17.457Z,80.90
2019-04-14T06:28:44.503Z,80.90
2019-04-14T06:31:31.865Z,79.90
2019-04-14T06:34:10.108Z,79.40
2019-04-14T06:36:51.320Z,76.60
2019-04-14T06:39:25.858Z,75.60
2019-04-14T06:41:52.943Z,75.60
2019-04-14T06:44:20.560Z,74.60
2019-04-14T06:46:48.153Z,72.60
2019-04-14T06:49:15.278Z,73.40
2019-04-14T06:51:42.341Z,71.50
2019-04-14T06:54:09.661Z,67.90
2019-04-14T06:56:36.588Z,66.00
2019-04-14T06:59:05.941Z,65.20
2019-04-14T07:01:32.939Z,65.70
2019-04-14T07:03:59.931Z,65.40
2019-04-14T07:06:27.473Z,65.50
2019-04-14T07:08:54.667Z,63.20
2019-04-14T07:11:22.108Z,62.40
2019-04-14T07:13:49.162Z,61.80
2019-04-14T07:16:23.612Z,60.00
2019-04-14T07:18:50.584Z,57.30
2019-04-14T07:21:17.701Z,57.00
2019-04-14T07:23:47.162Z,56.50
2019-04-14T07:26:13.596Z,57.30
2019-04-14T07:28:40.669Z,57.10
2019-04-14T07:31:16.093Z,54.60
2019-04-14T07:33:47.806Z,54.90
2019-04-14T07:36:19.989Z,52.70
2019-04-14T07:38:51.976Z,54.50
2019-04-14T07:41:23.965Z,52.60
2019-04-14T07:44:01.633Z,53.50
2019-04-14T07:46:33.593Z,53.50
2019-04-14T07:49:20.606Z,54.20
2019-04-14T07:51:55.439Z,55.90
2019-04-14T07:54:24.520Z,53.90
2019-04-14T07:56:59.477Z,53.10
2019-04-14T07:59:28.977Z,51.60
2019-04-14T08:02:07.166Z,52.40
2019-04-14T08:04:36.613Z,52.40
2019-04-14T08:07:03.734Z,51.40
2019-04-14T08:09:31.177Z,51.20
2019-04-14T08:11:58.228Z,50.20
2019-04-14T08:14:25.380Z,49.30
2019-04-14T08:16:52.434Z,48.90
2019-04-14T08:19:19.442Z,49.00
2019-04-14T08:21:46.716Z,48.20
2019-04-14T08:24:13.783Z,47.50
2019-04-14T08:26:40.784Z,44.90
2019-04-14T08:29:07.868Z,43.60
2019-04-14T08:31:34.974Z,44.20
2019-04-14T08:34:01.963Z,43.70
2019-04-14T08:36:29.181Z,42.20
2019-04-14T08:38:56.279Z,42.20
2019-04-14T08:41:23.240Z,43.50
2019-04-14T08:44:04.458Z,40.30
2019-04-14T08:46:39.465Z,38.20
2019-04-14T08:49:08.449Z,36.70
2019-04-14T08:51:40.136Z,36.00
2019-04-14T08:54:12.114Z,35.90
2019-04-14T08:56:43.497Z,34.60
2019-04-14T08:59:21.177Z,34.40
2019-04-14T09:02:06.798Z,36.50
2019-04-14T09:04:52.174Z,37.20
2019-04-14T09:07:22.157Z,37.00
2019-04-14T09:09:51.036Z,37.50
2019-04-14T09:12:26.145Z,38.10
2019-04-14T09:14:57.183Z,39.50
2019-04-14T09:17:22.212Z,37.50
2019-04-14T09:19:49.190Z,38.40
2019-04-14T09:22:16.082Z,39.40
2019-04-14T09:24:43.149Z,39.10
2019-04-14T09:27:10.119Z,38.80
2019-04-14T09:29:37.074Z,37.60
2019-04-14T09:32:05.982Z,37.80
2019-04-14T09:34:33.046Z,38.40
2019-04-14T09:37:00.042Z,38.50
2019-04-14T09:39:27.037Z,38.20
2019-04-14T09:41:54.019Z,37.10
2019-04-14T09:44:20.993Z,35.20
2019-04-14T09:46:47.995Z,36.20
2019-04-14T09:49:14.867Z,36.30
2019-04-14T09:51:41.985Z,36.20
2019-04-14T09:54:08.985Z,36.20
2019-04-14T09:56:36.111Z,35.90
2019-04-14T09:59:03.134Z,36.30
2019-04-14T10:01:30.253Z,35.90
2019-04-14T10:03:57.346Z,36.40
2019-04-14T10:06:24.381Z,35.30
2019-04-14T10:08:51.481Z,36.00
2019-04-14T10:11:18.573Z,36.50
2019-04-14T10:13:45.581Z,35.30
2019-04-14T10:16:12.586Z,36.50
2019-04-14T10:18:39.548Z,34.70
2019-04-14T10:21:16.860Z,33.60
2019-04-14T10:23:35.274Z,33.70
2019-04-14T10:26:02.254Z,33.80
2019-04-14T10:28:29.234Z,34.10
2019-04-14T10:30:56.375Z,34.50
2019-04-14T10:33:23.340Z,34.60
2019-04-14T10:35:50.334Z,33.40
2019-04-14T10:38:17.405Z,32.70
2019-04-14T10:40:44.309Z,30.90
2019-04-14T10:43:11.230Z,31.10
2019-04-14T10:45:38.149Z,31.30
2019-04-14T10:48:05.249Z,31.20
2019-04-14T10:50:32.349Z,31.30
2019-04-14T10:52:59.421Z,33.30
2019-04-14T10:55:26.479Z,36.60
2019-04-14T10:57:53.348Z,37.10
2019-04-14T11:00:20.698Z,36.30
2019-04-14T11:02:47.740Z,36.20
2019-04-14T11:05:14.863Z,36.50
2019-04-14T11:07:41.808Z,37.70
2019-04-14T11:10:09.407Z,38.00
2019-04-14T11:12:36.485Z,37.70
2019-04-14T11:15:04.217Z,37.10
2019-04-14T11:17:31.238Z,36.60
2019-04-14T11:19:58.332Z,36.30
2019-04-14T11:22:25.344Z,36.70
2019-04-14T11:24:52.245Z,37.30
2019-04-14T11:27:19.108Z,35.50
2019-04-14T11:29:46.056Z,36.00
2019-04-14T11:32:20.735Z,36.50
2019-04-14T11:34:55.866Z,35.90
2019-04-14T11:37:33.484Z,36.60
2019-04-14T11:40:01.218Z,35.90
2019-04-14T11:42:28.212Z,35.90
2019-04-14T11:44:55.244Z,35.50
2019-04-14T11:47:22.205Z,34.30
2019-04-14T11:49:49.233Z,34.00
2019-04-14T11:52:16.180Z,34.00
2019-04-14T11:54:43.113Z,34.40
2019-04-14T11:57:10.050Z,34.00
2019-04-14T11:59:42.025Z,33.40
2019-04-14T12:02:14.134Z,33.20
2019-04-14T12:04:43.063Z,33.00
2019-04-14T12:07:11.953Z,33.70
2019-04-14T12:09:47.024Z,33.20
2019-04-14T12:12:14.025Z,32.50
2019-04-14T12:14:40.928Z,32.20
2019-04-14T12:17:07.976Z,31.10
2019-04-14T12:19:35.040Z,31.10
2019-04-14T12:22:08.070Z,30.50
2019-04-14T12:24:31.193Z,30.20
2019-04-14T12:26:58.158Z,30.50
2019-04-14T12:29:26.117Z,30.00
2019-04-14T12:31:53.777Z,29.90
2019-04-14T12:34:20.689Z,29.70
2019-04-14T12:36:47.817Z,29.60
2019-04-14T12:39:20.047Z,29.60
2019-04-14T12:41:48.936Z,28.60
2019-04-14T12:44:34.536Z,28.60
2019-04-14T12:47:20.291Z,28.80
2019-04-14T12:49:52.410Z,28.70
2019-04-14T12:52:24.058Z,28.10
2019-04-14T12:54:51.081Z,28.20
2019-04-14T12:57:19.954Z,27.90
2019-04-14T12:59:47.000Z,28.30
2019-04-14T13:02:15.985Z,28.90
2019-04-14T13:04:43.205Z,29.00
2019-04-14T13:07:10.214Z,29.00
2019-04-14T13:09:37.326Z,29.10
2019-04-14T13:12:04.795Z,29.70
2019-04-14T13:14:31.747Z,30.60
2019-04-14T13:16:58.849Z,30.20
2019-04-14T13:19:25.848Z,29.20
2019-04-14T13:21:52.901Z,28.70
2019-04-14T13:24:19.851Z,29.40
2019-04-14T13:26:46.857Z,29.90
2019-04-14T13:29:13.864Z,30.00
2019-04-14T13:31:40.831Z,29.50
2019-04-14T13:34:07.764Z,29.20
2019-04-14T13:36:34.668Z,29.20
2019-04-14T13:39:01.809Z,29.70
2019-04-14T13:41:28.772Z,29.50
2019-04-14T13:43:55.777Z,30.00
2019-04-14T13:46:22.767Z,30.00
2019-04-14T13:48:49.799Z,30.80
2019-04-14T13:51:16.781Z,29.20
2019-04-14T13:53:43.997Z,29.60
2019-04-14T13:56:11.904Z,29.80
2019-04-14T13:58:40.735Z,30.40
2019-04-14T14:01:08.326Z,30.10
2019-04-14T14:03:35.496Z,30.00
2019-04-14T14:06:02.840Z,28.90
2019-04-14T14:08:30.185Z,29.00
2019-04-14T14:11:05.283Z,29.00
2019-04-14T14:13:37.033Z,29.70
2019-04-14T14:16:22.845Z,30.00
2019-04-14T14:19:00.988Z,29.90
2019-04-14T14:21:29.831Z,30.00
2019-04-14T14:23:58.863Z,30.40
2019-04-14T14:26:28.003Z,30.10
2019-04-14T14:28:55.034Z,29.90
2019-04-14T14:31:22.317Z,30.00
2019-04-14T14:33:49.432Z,29.90
2019-04-14T14:36:16.512Z,29.40
2019-04-14T14:38:43.505Z,29.60
2019-04-14T14:41:12.442Z,29.70
2019-04-14T14:43:39.422Z,29.90
2019-04-14T14:46:25.126Z,30.00
2019-04-14T14:48:54.340Z,30.00
2019-04-14T14:51:40.017Z,30.30
2019-04-14T14:54:07.050Z,30.30
2019-04-14T14:56:33.972Z,30.30
2019-04-14T14:59:01.135Z,31.00
2019-04-14T15:01:28.167Z,31.20
2019-04-14T15:03:58.047Z,31.20
2019-04-14T15:06:25.202Z,31.20
2019-04-14T15:08:52.113Z,29.40
2019-04-14T15:11:19.217Z,29.90
2019-04-14T15:13:46.217Z,29.90
2019-04-14T15:16:13.537Z,29.40
2019-04-14T15:18:40.830Z,29.70
2019-04-14T15:21:11.880Z,29.90
2019-04-14T15:23:39.323Z,30.00
2019-04-14T15:26:06.802Z,29.80
2019-04-14T15:28:34.187Z,29.90
2019-04-14T15:31:01.650Z,30.10
2019-04-14T15:33:30.254Z,30.20
2019-04-14T15:35:57.814Z,30.20
2019-04-14T15:38:26.365Z,30.30
2019-04-14T15:40:53.624Z,31.70
2019-04-14T15:43:21.034Z,31.00
2019-04-14T15:45:48.381Z,30.80
2019-04-14T15:48:16.235Z,30.80
2019-04-14T15:50:43.697Z,31.40
2019-04-14T15:53:11.154Z,31.50
2019-04-14T15:55:38.958Z,31.50
2019-04-14T15:58:26.133Z,30.60
2019-04-14T16:01:14.709Z,31.40
2019-04-14T16:03:52.951Z,32.30
2019-04-14T16:06:31.515Z,32.10
2019-04-14T16:09:17.473Z,33.40
2019-04-14T16:11:49.751Z,34.00
2019-04-14T16:14:20.534Z,34.40
2019-04-14T16:16:49.995Z,34.10
2019-04-14T16:19:33.352Z,34.50
2019-04-14T16:22:00.627Z,34.40
2019-04-14T16:24:28.282Z,34.80
2019-04-14T16:27:00.912Z,35.00
2019-04-14T16:29:42.372Z,34.70
2019-04-14T16:32:23.875Z,35.10
2019-04-14T16:34:55.160Z,35.40
2019-04-14T16:37:22.933Z,36.10
2019-04-14T16:39:50.535Z,33.50
2019-04-14T16:42:18.156Z,34.90
2019-04-14T16:44:47.534Z,35.20
2019-04-14T16:47:15.099Z,35.20
2019-04-14T16:49:42.905Z,34.80
2019-04-14T16:52:12.169Z,35.20
2019-04-14T16:54:58.126Z,35.90
2019-04-14T16:57:38.369Z,36.50
2019-04-14T17:00:07.978Z,36.80
2019-04-14T17:02:35.476Z,36.80
2019-04-14T17:05:03.462Z,37.70
2019-04-14T17:07:30.764Z,38.40
2019-04-14T17:09:59.148Z,38.20
2019-04-14T17:12:26.626Z,38.90
2019-04-14T17:14:59.159Z,39.40
2019-04-14T17:17:31.081Z,39.30
2019-04-14T17:20:17.095Z,39.30
2019-04-14T17:22:46.604Z,39.80
2019-04-14T17:25:28.152Z,40.50
2019-04-14T17:28:06.750Z,40.50
2019-04-14T17:30:45.048Z,40.80
2019-04-14T17:33:14.703Z,41.50
2019-04-14T17:35:59.447Z,41.70
2019-04-14T17:38:41.253Z,41.70
2019-04-14T17:41:16.491Z,41.70
2019-04-14T17:43:52.172Z,42.10
2019-04-14T17:46:38.629Z,42.20
2019-04-14T17:49:10.758Z,42.10
2019-04-14T17:51:43.220Z,42.60
2019-04-14T17:54:12.757Z,44.10
2019-04-14T17:56:42.201Z,44.30
2019-04-14T17:59:17.770Z,44.50
2019-04-14T18:01:49.844Z,45.00
2019-04-14T18:04:27.024Z,44.80
2019-04-14T18:06:56.335Z,45.30
2019-04-14T18:09:28.592Z,44.50
2019-04-14T18:12:05.924Z,44.90
2019-04-14T18:14:35.640Z,44.90
2019-04-14T18:17:08.211Z,45.30
2019-04-14T18:19:49.809Z,45.80
2019-04-14T18:22:18.126Z,46.00
2019-04-14T18:24:45.106Z,45.80
2019-04-14T18:27:12.906Z,46.30
2019-04-14T18:29:54.488Z,46.30
2019-04-14T18:32:24.314Z,46.80
2019-04-14T18:35:08.734Z,46.80
2019-04-14T18:37:46.458Z,46.90
2019-04-14T18:40:15.393Z,46.60
2019-04-14T18:42:53.626Z,46.90
2019-04-14T18:45:26.854Z,46.80
2019-04-14T18:47:56.025Z,47.60
2019-04-14T18:50:25.113Z,47.10
2019-04-14T18:52:54.067Z,47.00
2019-04-14T18:55:29.043Z,47.40
2019-04-14T18:57:58.041Z,47.20
2019-04-14T19:00:27.104Z,47.30
2019-04-14T19:02:55.169Z,47.70
2019-04-14T19:05:24.545Z,48.50
2019-04-14T19:07:53.199Z,47.90
2019-04-14T19:10:20.777Z,48.50
2019-04-14T19:12:49.648Z,48.60
2019-04-14T19:15:21.280Z,48.60
2019-04-14T19:17:56.156Z,48.60
2019-04-14T19:20:23.128Z,48.50
2019-04-14T19:22:50.161Z,48.50
2019-04-14T19:25:17.095Z,48.40
2019-04-14T19:27:44.144Z,48.50
2019-04-14T19:30:11.228Z,48.40
2019-04-14T19:32:38.220Z,48.50
2019-04-14T19:35:06.054Z,48.40
2019-04-14T19:37:33.068Z,48.50
2019-04-14T19:40:00.131Z,48.70
2019-04-14T19:42:27.484Z,48.60
2019-04-14T19:44:54.634Z,49.10
2019-04-14T19:47:21.843Z,49.10
2019-04-14T19:49:48.891Z,49.50
2019-04-14T19:52:15.875Z,49.50
2019-04-14T19:54:42.908Z,49.90
2019-04-14T19:57:09.888Z,49.70
2019-04-14T19:59:36.928Z,50.20
2019-04-14T20:02:04.205Z,50.30
2019-04-14T20:04:31.245Z,50.70
2019-04-14T20:06:58.379Z,50.70
2019-04-14T20:09:25.584Z,51.00
2019-04-14T20:11:52.736Z,51.10
2019-04-14T20:14:19.869Z,51.30
2019-04-14T20:16:51.503Z,51.10
2019-04-14T20:19:36.972Z,51.70
2019-04-14T20:22:05.955Z,51.70
2019-04-14T20:24:38.228Z,51.70
2019-04-14T20:27:24.047Z,51.90
2019-04-14T20:29:53.129Z,52.20
2019-04-14T20:32:23.132Z,52.40
2019-04-14T20:35:11.588Z,52.30
2019-04-14T20:37:46.183Z,52.10
2019-04-14T20:40:15.368Z,52.40
2019-04-14T20:42:45.839Z,52.90
2019-04-14T20:45:14.378Z,52.90
2019-04-14T20:47:41.501Z,52.90
2019-04-14T20:50:08.700Z,52.70
2019-04-14T20:52:38.675Z,52.80
2019-04-14T20:55:07.048Z,53.60
2019-04-14T20:57:36.819Z,54.00
2019-04-14T21:00:04.600Z,53.60
2019-04-14T21:02:33.440Z,54.20
2019-04-14T21:05:14.730Z,54.00
2019-04-14T21:07:46.701Z,54.00
2019-04-14T21:10:18.761Z,54.40
2019-04-14T21:13:04.660Z,54.20
2019-04-14T21:15:39.451Z,54.30
2019-04-14T21:18:14.270Z,54.40
2019-04-14T21:20:49.165Z,55.00
2019-04-14T21:23:33.363Z,54.60
2019-04-14T21:26:02.348Z,55.00
2019-04-14T21:28:34.506Z,54.90
2019-04-14T21:31:15.706Z,55.30
2019-04-14T21:33:44.666Z,55.10
2019-04-14T21:36:18.545Z,55.30
2019-04-14T21:38:53.861Z,54.80
2019-04-14T21:41:25.549Z,55.10
2019-04-14T21:43:52.557Z,55.30
2019-04-14T21:46:19.605Z,55.20
2019-04-14T21:48:46.804Z,55.10
2019-04-14T21:51:13.903Z,55.60
2019-04-14T21:53:41.153Z,55.50
2019-04-14T21:56:13.473Z,55.80
2019-04-14T21:58:39.008Z,56.00
2019-04-14T22:01:48.789Z,56.80
2019-04-14T22:04:35.551Z,55.80
2019-04-14T22:07:21.563Z,56.40
2019-04-14T22:09:49.135Z,56.20
2019-04-14T22:12:16.100Z,56.50
2019-04-14T22:14:43.184Z,56.40
2019-04-14T22:17:10.112Z,56.80
2019-04-14T22:19:37.014Z,56.60
2019-04-14T22:22:03.944Z,56.80
2019-04-14T22:24:30.852Z,56.70
2019-04-14T22:26:57.872Z,56.80
2019-04-14T22:29:24.832Z,57.00
2019-04-14T22:31:51.746Z,57.00
2019-04-14T22:34:18.887Z,57.30
2019-04-14T22:36:46.005Z,57.00
2019-04-14T22:39:16.960Z,57.50
2019-04-14T22:41:43.901Z,57.30
2019-04-14T22:44:10.906Z,57.00
2019-04-14T22:46:37.765Z,57.50
2019-04-14T22:49:04.725Z,57.40
2019-04-14T22:51:31.797Z,57.60
2019-04-14T22:53:58.692Z,57.70
2019-04-14T22:56:38.278Z,58.00
2019-04-14T22:58:54.419Z,58.00
2019-04-14T23:01:25.811Z,58.30
2019-04-14T23:04:00.986Z,58.00
2019-04-14T23:06:38.717Z,58.00
2019-04-14T23:09:24.431Z,58.10
2019-04-14T23:11:53.358Z,58.00
2019-04-14T23:14:22.214Z,58.50
2019-04-14T23:16:57.154Z,58.20
2019-04-14T23:19:35.321Z,58.40
2019-04-14T23:22:07.320Z,58.60
2019-04-14T23:24:36.186Z,58.40
2019-04-14T23:27:03.151Z,58.60
2019-04-14T23:29:30.141Z,58.70
2019-04-14T23:31:57.331Z,59.00
2019-04-14T23:34:24.360Z,59.20
2019-04-14T23:36:52.494Z,59.20
2019-04-14T23:39:19.434Z,59.40
2019-04-14T23:41:46.402Z,59.60
2019-04-14T23:44:13.321Z,59.60
2019-04-14T23:46:40.405Z,59.70
2019-04-14T23:49:07.416Z,60.10
2019-04-14T23:51:34.421Z,60.10
2019-04-14T23:54:02.715Z,60.60
2019-04-14T23:56:29.796Z,60.50
2019-04-14T23:58:56.805Z,60.60
